createdAt,value
2022-10-25T03:17:49.575Z,98770.09
2022-10-25T03:21:00.885Z,98770.63
2022-10-25T03:24:11.438Z,98783.56
2022-10-25T03:27:21.972Z,98778.84
2022-10-25T03:30:33.550Z,98785.97
2022-10-25T03:33:45.628Z,98793.88
2022-10-25T03:36:57.887Z,98799.28
2022-10-25T03:40:10.592Z,98790.72
2022-10-25T03:46:31.733Z,98801.63
2022-10-25T03:49:43.853Z,98806.00
2022-10-25T03:52:54.532Z,98810.75
2022-10-25T03:56:05.375Z,98804.59
2022-10-25T03:59:15.881Z,98809.94
2022-10-25T04:02:27.120Z,98804.59
2022-10-25T04:05:38.982Z,98802.00
2022-10-25T04:08:49.523Z,98798.81
2022-10-25T04:11:59.907Z,98802.47
2022-10-25T04:15:11.312Z,98793.22
2022-10-25T04:18:22.315Z,98792.22
2022-10-25T04:21:34.271Z,98796.22
2022-10-25T04:24:44.691Z,98810.50
2022-10-25T04:27:55.411Z,98803.31
2022-10-25T04:31:05.938Z,98825.09
2022-10-25T04:34:16.373Z,98827.00
2022-10-25T04:37:28.244Z,98825.59
2022-10-25T04:40:38.583Z,98823.75
2022-10-25T04:43:49.699Z,98813.03
2022-10-25T04:47:00.298Z,98819.19
2022-10-25T04:50:11.090Z,98818.94
2022-10-25T04:53:23.192Z,98824.91
2022-10-25T04:56:33.694Z,98824.91
2022-10-25T04:59:44.610Z,98814.38
2022-10-25T06:58:21.561Z,98904.84
2022-10-25T07:01:32.134Z,98914.84
2022-10-25T07:04:42.522Z,98913.97
2022-10-25T07:07:53.495Z,98915.13
2022-10-25T07:11:05.650Z,98908.56
2022-10-25T07:14:18.672Z,98911.16
2022-10-25T07:17:29.425Z,98927.22
2022-10-25T07:20:40.686Z,98926.44
2022-10-25T07:23:52.108Z,98932.59
2022-10-25T07:27:02.326Z,98920.47
2022-10-25T07:30:15.833Z,98924.25
2022-10-25T07:33:26.184Z,98928.88
2022-10-25T07:36:36.507Z,98937.94
2022-10-25T07:39:47.060Z,98939.94
2022-10-25T07:42:57.723Z,98943.69
2022-10-25T07:46:09.968Z,98941.88
2022-10-25T07:49:20.385Z,98942.88
2022-10-25T07:52:30.692Z,98941.47
2022-10-25T07:55:41.067Z,98958.06
2022-10-25T07:58:52.049Z,98959.44
2022-10-25T08:02:03.992Z,98970.16
2022-10-25T08:05:14.295Z,98962.91
2022-10-25T08:08:25.321Z,98959.56
2022-10-25T08:11:35.967Z,98963.25
2022-10-25T08:14:47.617Z,98953.59
2022-10-25T08:18:02.741Z,98961.50
2022-10-25T08:21:13.024Z,98968.28
2022-10-25T08:24:23.244Z,98966.19
2022-10-25T08:27:34.011Z,98972.78
2022-10-25T08:30:44.768Z,98966.53
2022-10-25T08:33:56.963Z,98972.22
2022-10-25T08:37:08.620Z,98960.81
2022-10-25T08:40:22.310Z,98966.50
2022-10-25T08:43:50.875Z,98970.00
2022-10-25T08:47:06.966Z,98971.06
2022-10-25T08:50:24.375Z,98977.91
2022-10-25T08:53:41.774Z,98973.97
2022-10-25T08:57:14.726Z,98982.78
2022-10-25T09:00:27.357Z,98965.78
2022-10-25T09:03:38.139Z,98971.75
2022-10-25T09:07:01.682Z,98978.94
2022-10-25T09:10:23.573Z,98975.63
2022-10-25T09:13:44.289Z,98970.06
2022-10-25T09:17:04.187Z,98981.84
2022-10-25T09:20:20.559Z,98976.50
2022-10-25T09:23:33.540Z,98979.13
2022-10-25T09:26:49.477Z,98981.31
2022-10-25T09:30:06.579Z,98976.69
2022-10-25T09:33:22.106Z,98975.91
2022-10-25T09:36:38.591Z,98977.06
2022-10-25T09:39:54.373Z,98985.00
2022-10-25T09:43:08.779Z,98977.41
2022-10-25T09:46:23.987Z,98986.19
2022-10-25T09:49:43.160Z,98982.59
2022-10-25T09:53:06.354Z,98990.56
2022-10-25T09:56:19.197Z,98993.66
2022-10-25T09:59:30.860Z,98991.53
2022-10-25T10:02:41.675Z,98986.78
2022-10-25T10:05:59.836Z,98991.50
2022-10-25T10:09:14.617Z,98998.25
2022-10-25T10:12:32.017Z,98990.41
2022-10-25T10:15:51.577Z,98993.41
2022-10-25T10:19:18.527Z,98996.59
2022-10-25T10:22:29.313Z,98996.19
2022-10-25T10:25:46.875Z,98988.38
2022-10-25T10:29:08.883Z,98987.50
2022-10-25T10:32:27.012Z,99000.53
2022-10-25T10:35:38.399Z,98987.56
2022-10-25T10:38:49.003Z,98981.09
2022-10-25T10:42:04.385Z,98978.88
2022-10-25T10:45:19.546Z,98969.91
2022-10-25T10:48:40.410Z,98969.63
2022-10-25T10:51:54.406Z,98973.56
2022-10-25T10:55:05.441Z,98974.53
2022-10-25T10:58:17.884Z,98971.13
2022-10-25T11:01:34.683Z,98968.00
2022-10-25T11:04:50.378Z,98966.97
2022-10-25T11:08:03.088Z,98970.81
2022-10-25T11:11:15.392Z,98976.34
2022-10-25T11:14:25.891Z,98971.53
2022-10-25T11:17:40.859Z,98971.38
2022-10-25T11:20:56.774Z,98968.16
2022-10-25T11:24:19.325Z,98964.88
2022-10-25T11:27:42.060Z,98971.34
2022-10-25T11:31:03.736Z,98975.06
2022-10-25T11:34:26.386Z,98971.19
2022-10-25T11:37:43.387Z,98969.53
2022-10-25T11:41:05.980Z,98960.72
2022-10-25T11:44:39.777Z,98968.97
2022-10-25T11:48:07.738Z,98974.28
2022-10-25T11:51:30.592Z,98969.59
2022-10-25T11:54:47.864Z,98974.13
2022-10-25T11:58:12.347Z,98970.94
2022-10-25T12:01:37.630Z,98966.38
2022-10-25T12:05:02.904Z,98967.31
2022-10-25T12:08:31.080Z,98973.88
2022-10-25T12:11:46.795Z,98973.63
2022-10-25T12:15:00.983Z,98974.31
2022-10-25T12:18:16.781Z,98966.44
2022-10-25T12:21:32.314Z,98975.19
2022-10-25T12:24:50.121Z,98974.63
2022-10-25T12:28:10.933Z,98969.81
2022-10-25T12:31:26.515Z,98960.00
2022-10-25T12:34:43.400Z,98960.56
2022-10-25T12:37:58.857Z,98961.91
2022-10-25T12:41:20.794Z,98966.44
2022-10-25T12:44:47.921Z,98963.75
2022-10-25T12:48:11.745Z,98957.28
2022-10-25T12:51:39.778Z,98951.72
2022-10-25T12:55:05.218Z,98951.56
2022-10-25T12:58:30.732Z,98946.81
2022-10-25T13:01:58.845Z,98937.53
2022-10-25T13:05:32.070Z,98938.81
2022-10-25T13:08:42.933Z,98936.63
2022-10-25T13:11:59.803Z,98947.19
2022-10-25T13:15:20.386Z,98946.19
2022-10-25T13:18:42.952Z,98942.63
2022-10-25T13:22:11.972Z,98940.53
2022-10-25T13:25:59.502Z,98944.56
2022-10-25T13:29:39.208Z,98951.09
2022-10-25T13:33:27.704Z,98946.06
2022-10-25T13:36:48.221Z,98951.41
2022-10-25T13:40:00.008Z,98940.88
2022-10-25T13:43:21.382Z,98933.94
2022-10-25T13:46:36.189Z,98941.03
2022-10-25T13:49:49.795Z,98940.50
2022-10-25T13:53:04.873Z,98946.81
2022-10-25T13:56:34.341Z,98944.06
2022-10-25T14:00:00.853Z,98940.88
2022-10-25T14:03:28.496Z,98945.75
2022-10-25T14:06:42.699Z,98939.56
2022-10-25T14:09:55.210Z,98951.72
2022-10-25T14:13:17.710Z,98948.75
2022-10-25T14:16:32.240Z,98951.53
2022-10-25T14:19:46.527Z,98954.50
2022-10-25T14:23:03.745Z,98939.56
2022-10-25T14:26:16.814Z,98944.03
2022-10-25T14:29:29.621Z,98945.50
2022-10-25T14:32:49.843Z,98943.56
2022-10-25T14:36:10.627Z,98937.31
2022-10-25T14:39:25.285Z,98934.66
2022-10-25T14:42:40.271Z,98926.88
2022-10-25T14:46:00.707Z,98914.69
2022-10-25T14:49:12.057Z,98918.84
2022-10-25T14:52:24.291Z,98932.53
2022-10-25T14:55:36.974Z,98928.59
2022-10-25T14:58:49.384Z,98927.09
2022-10-25T15:02:04.562Z,98938.25
2022-10-25T15:05:20.096Z,98931.97
2022-10-25T15:08:30.533Z,98928.88
2022-10-25T15:12:02.056Z,98931.16
2022-10-25T15:15:32.821Z,98929.03
2022-10-25T15:18:44.786Z,98928.06
2022-10-25T15:22:08.255Z,98924.69
2022-10-25T15:25:29.122Z,98919.66
2022-10-25T15:28:52.046Z,98919.50
2022-10-25T15:32:02.635Z,98920.97
2022-10-25T15:35:25.454Z,98916.88
2022-10-25T15:39:05.847Z,98907.63
2022-10-25T15:42:10.468Z,98906.25
2022-10-25T15:45:32.436Z,98909.22
2022-10-25T15:48:44.341Z,98908.63
2022-10-25T15:51:55.866Z,98906.34
2022-10-25T15:55:21.405Z,98913.38
2022-10-25T15:58:32.164Z,98918.59
2022-10-25T16:01:46.474Z,98922.16
2022-10-25T16:04:57.339Z,98925.63
2022-10-25T16:08:14.285Z,98919.84
2022-10-25T16:11:24.848Z,98922.53
2022-10-25T16:14:37.415Z,98913.03
2022-10-25T16:17:50.228Z,98912.88
2022-10-25T16:21:00.874Z,98910.19
2022-10-25T16:24:12.948Z,98905.66
2022-10-25T16:27:23.374Z,98901.53
2022-10-25T16:30:36.514Z,98909.50
2022-10-25T16:33:50.645Z,98909.63
2022-10-25T16:37:01.391Z,98909.94
2022-10-25T16:40:16.275Z,98912.56
2022-10-25T16:43:29.148Z,98918.72
2022-10-25T16:46:47.451Z,98902.47
2022-10-25T16:49:59.194Z,98898.50
2022-10-25T16:53:22.129Z,98899.81
2022-10-25T16:56:32.587Z,98901.78
2022-10-25T16:59:42.496Z,98897.72
2022-10-25T17:02:52.585Z,98904.75
2022-10-25T17:06:22.190Z,98899.81
2022-10-25T17:13:01.447Z,98898.06
2022-10-25T17:16:13.592Z,98900.50
2022-10-25T17:19:23.534Z,98900.19
2022-10-25T17:22:34.931Z,98898.13
2022-10-25T17:25:44.949Z,98897.00
2022-10-25T17:29:00.855Z,98904.13
2022-10-25T17:32:10.803Z,98894.13
2022-10-25T17:35:28.501Z,98889.09
2022-10-25T17:38:41.228Z,98889.28
2022-10-25T18:11:11.409Z,98897.19
2022-10-25T18:14:22.369Z,98894.78
2022-10-25T18:32:17.259Z,98906.97
2022-10-25T18:35:27.611Z,98901.38
2022-10-25T18:38:37.946Z,98898.38
2022-10-25T18:41:49.341Z,98898.81
2022-10-25T18:45:00.398Z,98904.06
2022-10-25T18:48:10.369Z,98897.78
2022-10-25T19:06:27.013Z,98893.50
2022-10-25T19:10:27.500Z,98887.13
2022-10-25T19:13:38.073Z,98881.97
2022-10-25T19:16:48.336Z,98884.69
2022-10-25T19:19:58.048Z,98882.66
2022-10-25T19:23:09.577Z,98878.19
2022-10-25T19:26:21.101Z,98887.75
2022-10-25T19:29:30.819Z,98893.97
2022-10-25T19:32:41.510Z,98890.03
2022-10-25T19:40:40.354Z,98881.72
2022-10-25T19:48:16.896Z,98874.53
2022-10-25T19:51:27.269Z,98877.78
2022-10-25T19:54:37.081Z,98874.28
2022-10-25T20:08:41.359Z,98867.53
2022-10-25T20:11:51.224Z,98871.09
